Time;durP1;ratioP1;P1;durP2;ratioP2;P2;SDS_P1;SDS_P2;PMS_P1;PMS_P2;Temp;Humidity;BMP_temperature;BMP_pressure;BME280_temperature;BME280_humidity;BME280_pressure;Samples;Min_cycle;Max_cycle;Signal;HPM_P1;HPM_P2
2021/04/23 00:00:50;;;;;;;12.60;4.18;;;7.50;73.40;;;7.60;60.59;101670.94;4986258;28;20042;-83
2021/04/23 00:03:27;;;;;;;9.88;4.30;;;7.40;73.40;;;7.58;59.67;101674.78;4988881;28;20042;-83
2021/04/23 00:05:58;;;;;;;12.18;4.18;;;7.40;73.50;;;7.54;59.96;101676.03;4992350;28;20046;-82
2021/04/23 00:08:25;;;;;;;10.23;4.63;;;7.30;73.60;;;7.56;60.22;101677.63;4993233;28;20061;-83
2021/04/23 00:10:54;;;;;;;7.68;4.22;;;7.30;73.70;;;7.51;60.23;101677.16;4993281;28;20073;-84
2021/04/23 00:13:22;;;;;;;15.48;4.72;;;7.20;73.90;;;7.48;60.22;101673.84;4992791;28;20841;-83
2021/04/23 00:15:52;;;;;;;10.70;4.47;;;7.20;74.00;;;7.47;60.29;101670.31;4993364;28;20125;-82
2021/04/23 00:18:20;;;;;;;10.68;4.38;;;7.20;74.20;;;7.43;59.96;101669.72;4993077;28;20813;-82
2021/04/23 00:20:47;;;;;;;11.70;4.85;;;7.10;74.40;;;7.38;60.67;101682.78;4993178;28;20124;-82
2021/04/23 00:23:15;;;;;;;12.88;4.72;;;7.10;74.60;;;7.24;61.50;101680.47;4992630;28;20085;-82
2021/04/23 00:25:42;;;;;;;14.75;5.00;;;7.30;75.00;;;7.18;61.59;101678.28;4993184;28;20070;-82
2021/04/23 00:28:12;;;;;;;10.20;4.75;;;7.00;74.70;;;7.17;60.99;101679.25;4992915;28;20403;-82
2021/04/23 00:30:45;;;;;;;16.55;5.13;;;7.00;74.90;;;7.18;60.73;101670.16;4992771;28;20046;-82
2021/04/23 00:33:13;;;;;;;14.23;4.50;;;6.90;75.10;;;7.13;61.55;101677.81;4990444;28;20078;-82
2021/04/23 00:35:43;;;;;;;11.40;4.78;;;6.90;75.10;;;7.12;61.09;101686.91;4991137;28;20042;-82
2021/04/23 00:38:14;;;;;;;14.40;5.50;;;6.80;75.00;;;7.17;61.13;101684.69;4992791;28;20080;-82
2021/04/23 00:40:48;;;;;;;13.68;5.15;;;6.80;74.80;;;7.18;61.32;101678.28;4992637;28;20043;-82
2021/04/23 00:43:17;;;;;;;8.50;4.60;;;6.80;75.10;;;7.15;60.80;101686.66;4992488;28;20057;-82
2021/04/23 00:45:45;;;;;;;11.85;4.68;;;6.80;75.30;;;7.11;61.20;101691.50;4993157;28;20458;-82
2021/04/23 00:48:13;;;;;;;12.23;5.10;;;6.80;75.40;;;7.08;61.40;101688.19;4993190;28;20046;-82
2021/04/23 00:50:44;;;;;;;12.95;5.72;;;6.80;75.50;;;7.03;61.33;101686.75;4992906;28;20058;-82
2021/04/23 00:53:14;;;;;;;14.77;5.32;;;6.70;75.60;;;6.97;61.28;101687.28;4992254;28;20057;-82
2021/04/23 00:55:42;;;;;;;14.82;5.68;;;6.70;75.60;;;6.92;61.48;101686.81;4991621;28;20061;-82
2021/04/23 00:58:13;;;;;;;14.35;5.40;;;6.70;75.50;;;6.87;62.37;101689.03;4993062;28;20062;-82
2021/04/23 01:00:43;;;;;;;15.13;5.32;;;6.70;75.60;;;6.88;61.45;101688.06;4992453;28;20038;-82
2021/04/23 01:03:12;;;;;;;14.95;5.20;;;6.60;75.50;;;6.80;61.57;101686.00;4990130;28;20687;-82
2021/04/23 01:05:39;;;;;;;13.10;4.80;;;6.60;75.70;;;6.79;61.86;101688.84;4992253;28;20117;-82
2021/04/23 01:08:06;;;;;;;14.23;5.00;;;6.60;75.80;;;6.70;61.85;101676.97;4991031;28;20077;-83
2021/04/23 01:10:34;;;;;;;11.52;4.90;;;6.50;75.80;;;6.75;61.62;101679.28;4993452;28;20061;-82
2021/04/23 01:13:02;;;;;;;12.38;5.00;;;6.50;76.00;;;6.73;61.68;101681.25;4991998;28;20760;-82
2021/04/23 01:15:29;;;;;;;10.27;4.60;;;6.50;76.00;;;6.70;61.75;101682.38;4992362;28;20050;-82
2021/04/23 01:17:56;;;;;;;16.13;5.25;;;6.40;76.10;;;6.69;61.85;101685.22;4992125;28;20043;-82
2021/04/23 01:20:24;;;;;;;12.40;5.45;;;6.40;76.20;;;6.65;62.15;101684.63;4992420;28;20042;-82
2021/04/23 01:22:53;;;;;;;13.35;5.00;;;6.40;76.40;;;6.62;62.53;101682.16;4992031;28;20074;-83
2021/04/23 01:25:22;;;;;;;13.90;5.13;;;6.40;76.40;;;6.55;62.42;101687.25;4992196;28;20042;-82
2021/04/23 01:27:48;;;;;;;14.93;5.15;;;6.30;76.30;;;6.55;62.25;101689.06;4991953;28;20042;-82
2021/04/23 01:30:20;;;;;;;14.52;5.50;;;6.30;76.40;;;6.57;62.26;101693.38;4991654;28;20082;-82
2021/04/23 01:32:47;;;;;;;18.15;5.93;;;6.30;76.70;;;6.50;62.65;101691.31;4991321;28;20492;-82
2021/04/23 01:35:18;;;;;;;13.52;5.68;;;6.20;76.70;;;6.48;62.34;101688.75;4991409;28;20069;-82
2021/04/23 01:37:45;;;;;;;14.88;4.90;;;6.20;76.80;;;6.42;62.45;101687.41;4992079;28;20057;-82
2021/04/23 01:40:15;;;;;;;14.68;5.88;;;6.10;76.80;;;6.39;62.83;101689.50;4992060;28;20066;-82
2021/04/23 01:42:43;;;;;;;11.48;5.30;;;6.10;77.00;;;6.38;62.54;101693.22;4991705;28;20078;-83
2021/04/23 01:45:12;;;;;;;14.45;5.63;;;6.10;77.10;;;6.41;62.45;101692.94;4991437;28;20050;-82
2021/04/23 01:47:40;;;;;;;13.13;5.18;;;6.00;77.20;;;6.40;62.70;101692.09;4991640;28;20073;-82
2021/04/23 01:50:12;;;;;;;12.02;5.05;;;6.00;77.30;;;6.42;62.73;101700.09;4992371;28;20076;-82
2021/04/23 01:52:38;;;;;;;14.07;5.72;;;6.10;77.60;;;6.39;63.11;101700.31;4991790;28;20057;-82
2021/04/23 01:55:10;;;;;;;13.95;6.40;;;6.00;77.50;;;6.43;62.45;101701.78;4991259;28;20042;-82
2021/04/23 01:57:38;;;;;;;;;;;6.00;77.60;;;6.39;62.71;101697.63;4992467;28;20183;-82
2021/04/23 02:00:14;;;;;;;12.10;5.68;;;6.10;77.60;;;6.38;62.70;101704.88;4991826;28;19960;-82
2021/04/23 02:02:43;;;;;;;13.73;6.05;;;6.00;77.50;;;6.36;62.71;101709.56;4984624;28;20093;-82
2021/04/23 02:05:12;;;;;;;16.55;6.57;;;6.00;77.60;;;6.35;62.58;101704.28;4991625;28;20057;-82
2021/04/23 02:07:39;;;;;;;17.00;6.10;;;6.00;77.70;;;6.34;62.97;101698.03;4991974;28;20085;-82
2021/04/23 02:10:12;;;;;;;15.90;6.63;;;6.00;77.80;;;6.34;62.74;101702.53;4991698;28;20149;-83
2021/04/23 02:12:40;;;;;;;13.18;5.82;;;6.00;77.80;;;6.34;62.95;101699.84;4981508;28;20047;-82
2021/04/23 02:15:11;;;;;;;14.98;5.90;;;6.00;77.70;;;6.33;62.59;101699.00;4989350;28;20425;-82
2021/04/23 02:17:38;;;;;;;15.98;6.70;;;6.00;77.80;;;6.37;62.72;101702.31;4996516;28;20074;-83
2021/04/23 02:20:10;;;;;;;16.65;6.07;;;6.00;77.90;;;6.33;62.87;101701.69;4989262;28;20049;-82
2021/04/23 02:22:38;;;;;;;18.67;6.60;;;6.00;78.00;;;6.34;63.06;101702.53;4995194;28;20046;-83
2021/04/23 02:25:08;;;;;;;16.33;5.97;;;5.90;78.10;;;6.30;63.04;101701.94;4995371;28;20046;-83
2021/04/23 02:27:35;;;;;;;16.20;6.40;;;5.90;78.20;;;6.25;63.26;101704.19;4989045;28;20617;-82
2021/04/23 02:30:08;;;;;;;13.10;6.45;;;5.90;78.20;;;6.22;63.50;101710.69;4994749;28;20046;-82
2021/04/23 02:32:35;;;;;;;15.85;6.60;;;5.90;78.30;;;6.22;63.39;101704.44;4995162;28;20081;-82
2021/04/23 02:35:04;;;;;;;16.45;7.05;;;5.80;78.20;;;6.16;63.25;101705.78;4995530;28;20085;-82
2021/04/23 02:37:31;;;;;;;21.13;7.78;;;5.80;78.30;;;6.18;63.18;101709.22;4994033;28;20145;-83
2021/04/23 02:39:58;;;;;;;23.58;9.55;;;5.80;78.30;;;6.19;63.44;101712.81;4989709;28;20092;-83
2021/04/23 02:42:25;;;;;;;24.90;9.15;;;5.80;78.50;;;6.20;63.07;101712.66;4995545;28;20101;-82
2021/04/23 02:44:52;;;;;;;27.13;9.68;;;5.80;78.60;;;6.17;63.37;101715.63;4994836;28;20483;-83
2021/04/23 02:47:19;;;;;;;19.55;9.07;;;5.80;78.60;;;6.13;63.38;101716.88;4995551;28;20058;-82
2021/04/23 02:49:46;;;;;;;18.67;8.00;;;5.70;78.70;;;6.10;63.50;101719.81;4995040;28;20121;-83
2021/04/23 02:52:13;;;;;;;17.10;7.63;;;5.70;78.70;;;6.03;63.37;101727.56;4995519;28;20046;-82
2021/04/23 02:54:40;;;;;;;18.27;7.22;;;5.70;78.70;;;6.04;63.41;101728.44;4994829;28;20093;-83
2021/04/23 02:57:07;;;;;;;16.13;6.47;;;5.60;78.70;;;6.02;63.57;101727.69;4995388;28;20049;-82
2021/04/23 02:59:34;;;;;;;18.88;7.05;;;5.60;78.80;;;6.01;63.56;101734.06;4994794;28;20046;-82
2021/04/23 03:02:01;;;;;;;15.50;6.85;;;5.60;78.80;;;5.98;63.55;101734.34;4994981;28;20084;-83
2021/04/23 03:04:29;;;;;;;13.40;6.50;;;5.60;78.80;;;5.93;63.91;101736.53;4994633;28;20074;-82
2021/04/23 03:06:57;;;;;;;21.02;6.40;;;5.60;79.00;;;5.86;63.73;101734.31;4995418;28;20042;-82
2021/04/23 03:09:24;;;;;;;14.57;6.35;;;5.50;78.80;;;5.84;63.55;101736.25;4994588;28;20446;-83
2021/04/23 03:11:51;;;;;;;16.63;7.40;;;5.50;79.00;;;5.78;63.67;101736.75;4995535;28;20050;-83
2021/04/23 03:14:17;;;;;;;15.93;6.93;;;5.50;79.00;;;5.81;63.68;101738.38;4994367;28;20192;-82
2021/04/23 03:16:45;;;;;;;15.88;7.53;;;5.40;79.10;;;5.82;63.57;101745.47;4995434;28;20085;-83
2021/04/23 03:19:13;;;;;;;20.42;7.43;;;5.50;79.20;;;5.83;63.59;101748.06;4995099;28;20447;-83
2021/04/23 03:21:42;;;;;;;17.98;6.97;;;5.40;79.10;;;5.73;63.92;101752.50;4995125;28;20077;-82
2021/04/23 03:24:10;;;;;;;13.05;6.20;;;5.40;79.20;;;5.71;63.88;101756.28;4994036;28;20046;-82
2021/04/23 03:26:37;;;;;;;17.50;6.45;;;5.30;79.30;;;5.71;64.06;101751.72;4993555;28;20051;-82
2021/04/23 03:29:07;;;;;;;18.90;6.53;;;5.30;79.50;;;5.65;64.04;101752.22;4994694;28;20070;-82
2021/04/23 03:31:34;;;;;;;15.32;6.75;;;5.30;79.30;;;5.62;64.01;101750.63;4994764;28;20046;-83
2021/04/23 03:34:01;;;;;;;16.17;6.50;;;5.30;79.30;;;5.58;64.19;101756.38;4994395;28;20061;-82
2021/04/23 03:36:28;;;;;;;17.15;6.57;;;5.20;79.30;;;5.52;64.10;101764.97;4995008;28;20085;-83
2021/04/23 03:38:56;;;;;;;14.73;6.75;;;5.20;79.20;;;5.46;64.53;101766.31;4994309;28;20038;-82
2021/04/23 03:41:29;;;;;;;19.83;7.07;;;5.20;79.40;;;5.48;64.44;101767.94;4993507;28;20085;-83
2021/04/23 03:43:57;;;;;;;16.55;6.75;;;5.20;79.40;;;5.43;63.76;101767.44;4993904;28;20034;-83
2021/04/23 03:46:25;;;;;;;14.52;6.28;;;5.10;79.20;;;5.36;64.27;101760.78;4992911;28;20676;-82
2021/04/23 03:48:52;;;;;;;16.67;6.57;;;5.10;79.30;;;5.28;64.30;101760.53;4994695;28;20077;-83
2021/04/23 03:51:20;;;;;;;13.93;6.80;;;5.00;79.30;;;5.34;64.28;101762.75;4994510;28;20128;-83
2021/04/23 03:53:48;;;;;;;12.65;6.93;;;5.00;79.60;;;5.37;64.34;101762.53;4993771;28;20054;-83
2021/04/23 03:56:18;;;;;;;14.10;6.22;;;5.00;79.50;;;5.32;63.85;101769.25;4994287;28;20415;-83
2021/04/23 03:58:45;;;;;;;14.57;7.40;;;5.00;79.50;;;5.31;64.33;101773.78;4993805;28;20069;-83
2021/04/23 04:01:15;;;;;;;18.70;7.10;;;4.90;79.50;;;5.27;64.40;101778.56;4994695;28;20042;-83
2021/04/23 04:03:43;;;;;;;12.73;6.30;;;4.90;79.70;;;5.24;64.30;101772.56;4994385;28;20524;-81
2021/04/23 04:06:10;;;;;;;14.25;7.32;;;4.90;79.90;;;5.23;64.48;101777.06;4995494;28;20157;-81
2021/04/23 04:08:37;;;;;;;17.55;6.78;;;4.90;79.90;;;5.23;64.36;101776.22;4995792;28;20050;-82
2021/04/23 04:11:05;;;;;;;15.95;6.90;;;4.90;80.00;;;5.17;64.64;101772.16;4996459;28;20469;-83
2021/04/23 04:13:33;;;;;;;17.02;7.10;;;4.80;79.80;;;5.18;64.05;101778.41;4995417;28;20054;-82
2021/04/23 04:16:01;;;;;;;16.30;6.70;;;4.80;80.00;;;5.12;63.99;101782.44;4996081;28;20129;-82
2021/04/23 04:18:28;;;;;;;14.30;6.40;;;4.80;79.70;;;5.08;64.41;101779.13;4996414;28;20116;-82
2021/04/23 04:20:56;;;;;;;18.85;7.32;;;4.70;79.90;;;5.12;64.05;101786.97;4996334;28;20046;-81
2021/04/23 04:23:24;;;;;;;16.33;7.25;;;4.70;79.90;;;5.08;64.20;101792.63;4995310;28;20145;-82
2021/04/23 04:25:56;;;;;;;16.50;7.32;;;4.70;79.80;;;5.09;64.33;101796.19;4989697;28;20062;-81
2021/04/23 04:28:24;;;;;;;18.17;7.88;;;4.70;80.00;;;5.06;64.08;101802.69;4996444;28;20069;-82
2021/04/23 04:30:51;;;;;;;16.52;6.60;;;4.70;80.00;;;5.06;64.34;101805.38;4996594;28;20066;-82
2021/04/23 04:33:18;;;;;;;15.48;6.50;;;4.70;80.20;;;5.03;65.03;101800.19;4995191;28;20065;-82
2021/04/23 04:35:46;;;;;;;19.65;6.95;;;4.70;80.30;;;5.00;65.11;101805.81;4989127;28;20444;-82
2021/04/23 04:38:14;;;;;;;19.48;7.20;;;4.70;81.20;;;5.00;65.05;101802.28;4993788;28;20042;-82
2021/04/23 04:40:44;;;;;;;20.08;7.25;;;4.70;81.20;;;5.03;64.50;101802.06;4989702;28;20361;-82
2021/04/23 04:43:14;;;;;;;15.10;7.30;;;4.70;81.00;;;4.99;64.75;101806.81;4989054;28;20523;-82
2021/04/23 04:45:42;;;;;;;16.15;7.20;;;4.70;81.00;;;5.03;64.62;101805.59;4995173;28;20106;-82
2021/04/23 04:48:11;;;;;;;16.08;6.90;;;4.90;80.70;;;5.02;64.85;101809.25;4994660;28;20054;-81
2021/04/23 04:50:43;;;;;;;14.57;6.78;;;4.70;80.00;;;5.06;64.94;101815.28;4994589;28;20133;-81
2021/04/23 04:53:11;;;;;;;17.25;6.88;;;4.70;80.10;;;5.05;65.32;101809.03;4988486;28;20309;-80
2021/04/23 04:55:42;;;;;;;16.20;7.03;;;4.80;80.30;;;5.11;64.89;101820.34;4995323;28;20047;-82
2021/04/23 04:58:13;;;;;;;14.77;7.28;;;4.80;80.40;;;5.08;65.71;101822.31;4994882;28;20050;-82
2021/04/23 05:00:42;;;;;;;13.20;6.95;;;4.80;80.50;;;5.05;65.92;101830.63;4994907;28;20046;-83
2021/04/23 05:03:11;;;;;;;18.10;7.43;;;4.80;80.70;;;5.02;65.76;101822.75;4994168;28;20101;-82
2021/04/23 05:05:42;;;;;;;14.80;6.65;;;4.80;80.60;;;5.05;66.23;101822.53;4994507;28;20054;-81
2021/04/23 05:08:09;;;;;;;16.92;7.60;;;4.90;80.80;;;5.07;66.22;101820.56;4994313;28;20054;-80
2021/04/23 05:10:37;;;;;;;16.27;7.18;;;4.90;81.00;;;5.14;65.98;101822.78;4994779;28;20038;-80
2021/04/23 05:13:04;;;;;;;15.38;6.90;;;5.00;81.00;;;5.16;66.81;101823.53;4993966;28;20141;-80
2021/04/23 05:15:30;;;;;;;17.00;7.07;;;5.00;81.30;;;5.17;66.51;101826.13;4993778;28;20533;-80
2021/04/23 05:17:58;;;;;;;17.98;7.10;;;5.00;81.20;;;5.24;66.79;101826.53;4993147;28;20271;-81
2021/04/23 05:20:25;;;;;;;15.55;7.28;;;5.10;81.30;;;5.28;66.87;101828.88;4989515;28;20065;-80
2021/04/23 05:22:53;;;;;;;18.58;7.95;;;5.10;81.50;;;5.32;66.90;101823.25;4989494;28;20042;-79
2021/04/23 05:25:24;;;;;;;15.90;7.38;;;5.20;81.50;;;5.35;66.98;101826.56;4985119;28;20046;-80
2021/04/23 05:27:52;;;;;;;18.08;7.57;;;5.20;81.60;;;5.38;67.46;101829.00;4991215;28;20473;-80
2021/04/23 05:30:24;;;;;;;19.67;8.20;;;5.30;81.90;;;5.41;67.34;101834.19;4991168;28;20054;-81
2021/04/23 05:32:52;;;;;;;16.35;6.97;;;5.30;81.50;;;5.46;67.10;101832.00;4991009;28;20050;-80
2021/04/23 05:35:20;;;;;;;18.75;7.55;;;5.40;81.70;;;5.56;67.23;101834.84;4991489;28;20454;-81
2021/04/23 05:37:51;;;;;;;17.77;7.18;;;5.60;81.80;;;5.55;67.56;101840.34;4991327;28;20567;-81
2021/04/23 05:40:24;;;;;;;17.27;7.68;;;5.60;81.80;;;5.66;67.36;101843.09;4991390;28;20719;-81
2021/04/23 05:42:52;;;;;;;18.15;7.78;;;5.60;81.60;;;5.73;67.15;101843.44;4990373;28;20063;-81
2021/04/23 05:45:20;;;;;;;17.75;8.40;;;5.70;81.40;;;5.73;67.71;101848.84;4990944;28;20046;-81
2021/04/23 05:47:47;;;;;;;22.63;8.43;;;5.80;81.70;;;5.85;67.43;101843.34;4991493;28;20564;-81
2021/04/23 05:50:17;;;;;;;20.70;8.77;;;5.90;81.20;;;6.01;66.83;101848.44;4990397;28;20039;-82
2021/04/23 05:52:45;;;;;;;17.45;8.27;;;6.10;80.90;;;6.07;66.91;101847.06;4980375;28;20062;-81
2021/04/23 05:55:18;;;;;;;17.73;8.07;;;6.20;80.70;;;6.10;66.86;101851.41;4972441;28;20691;-82
2021/04/23 05:57:45;;;;;;;20.77;7.63;;;6.30;80.40;;;6.15;67.19;101850.06;4990571;28;20078;-82
2021/04/23 06:00:18;;;;;;;23.08;8.68;;;6.40;80.20;;;6.15;67.47;101860.84;4991814;28;20098;-82
2021/04/23 06:02:47;;;;;;;21.67;8.30;;;6.40;80.40;;;6.19;67.99;101854.22;4991130;28;20043;-82
2021/04/23 06:05:15;;;;;;;23.30;8.65;;;6.50;80.60;;;6.30;67.38;101852.47;4992197;28;20439;-82
2021/04/23 06:07:42;;;;;;;20.85;8.73;;;6.60;79.80;;;6.33;68.22;101857.66;4991232;28;20057;-82
2021/04/23 06:10:12;;;;;;;19.35;8.30;;;6.70;80.00;;;6.37;68.32;101853.72;4991357;28;20053;-82
2021/04/23 06:12:40;;;;;;;27.77;9.77;;;6.90;79.90;;;6.53;67.39;101870.44;4991660;28;20756;-82
2021/04/23 06:15:09;;;;;;;25.98;8.95;;;7.00;79.60;;;6.62;67.42;101858.84;4992055;28;20050;-82
2021/04/23 06:17:36;;;;;;;27.33;8.73;;;7.10;79.00;;;6.63;67.18;101863.28;4992464;28;20511;-82
2021/04/23 06:20:06;;;;;;;27.77;8.65;;;7.20;79.00;;;6.68;67.46;101862.88;4992077;28;20570;-82
2021/04/23 06:22:33;;;;;;;24.85;8.80;;;7.20;78.90;;;6.77;66.29;101869.41;4992374;28;20577;-82
2021/04/23 06:25:00;;;;;;;25.52;8.82;;;7.30;78.20;;;6.87;65.78;101873.03;4990976;28;20054;-82
2021/04/23 06:27:27;;;;;;;27.90;8.82;;;7.40;77.90;;;6.95;66.52;101878.72;4991733;28;20089;-82
2021/04/23 06:29:54;;;;;;;26.02;8.18;;;7.50;77.50;;;7.08;66.39;101874.97;4991978;28;20709;-83
2021/04/23 06:32:21;;;;;;;25.65;8.52;;;7.60;77.70;;;7.14;66.83;101879.84;4991857;28;20038;-83
2021/04/23 06:34:48;;;;;;;24.08;8.50;;;7.80;78.60;;;7.21;66.34;101883.78;4991328;28;20491;-82
2021/04/23 06:37:15;;;;;;;16.23;6.93;;;7.90;77.60;;;7.26;66.81;101878.00;4995947;28;20081;-82
2021/04/23 06:39:41;;;;;;;18.23;7.30;;;8.00;77.30;;;7.35;65.96;101883.47;4995959;28;20058;-82
2021/04/23 06:42:08;;;;;;;18.02;6.20;;;8.10;76.50;;;7.42;64.51;101883.81;4996031;28;20082;-82
2021/04/23 06:44:35;;;;;;;15.63;6.57;;;8.20;75.20;;;7.48;65.70;101887.84;4995311;28;20054;-82
2021/04/23 06:47:03;;;;;;;17.08;6.60;;;8.30;75.50;;;7.57;65.09;101884.34;4995221;28;20050;-83
2021/04/23 06:49:30;;;;;;;18.50;5.72;;;8.40;74.90;;;7.63;63.75;101887.41;4995760;28;20125;-82
2021/04/23 06:51:57;;;;;;;18.33;6.28;;;8.50;74.00;;;7.70;64.64;101885.03;4996289;28;20054;-83
2021/04/23 06:54:24;;;;;;;24.05;7.13;;;8.60;74.20;;;7.77;65.43;101888.94;4995307;28;20058;-82
2021/04/23 06:56:51;;;;;;;23.83;6.28;;;8.70;74.70;;;7.80;64.78;101894.06;4995711;28;20577;-82
2021/04/23 06:59:18;;;;;;;15.75;5.85;;;8.80;74.00;;;7.83;64.16;101893.81;4998295;28;20046;-82
2021/04/23 07:01:45;;;;;;;17.42;6.00;;;8.80;73.00;;;7.92;63.25;101888.56;4999166;28;20042;-83
2021/04/23 07:04:13;;;;;;;15.38;5.88;;;8.90;72.50;;;8.03;63.03;101883.06;4998448;28;20042;-82
2021/04/23 07:06:41;;;;;;;23.05;6.30;;;9.00;72.20;;;8.09;63.75;101885.28;4999323;28;20057;-82
2021/04/23 07:09:09;;;;;;;18.88;5.90;;;9.10;72.40;;;8.16;62.74;101889.13;4998826;28;20454;-82
2021/04/23 07:11:37;;;;;;;14.73;5.07;;;9.30;70.80;;;8.20;62.04;101896.00;4998638;28;20125;-82
2021/04/23 07:14:04;;;;;;;16.38;5.60;;;9.40;70.30;;;8.22;62.13;101891.34;4998035;28;20062;-82
2021/04/23 07:16:31;;;;;;;19.35;6.00;;;9.40;69.80;;;8.23;61.42;101895.75;4999296;28;20077;-82
2021/04/23 07:18:57;;;;;;;20.67;5.63;;;9.30;69.90;;;8.22;61.08;101902.19;4999680;28;20050;-83
2021/04/23 07:21:25;;;;;;;19.80;5.57;;;9.20;69.50;;;8.22;61.54;101893.16;4993745;28;20117;-81
2021/04/23 07:23:52;;;;;;;13.80;5.40;;;9.20;69.60;;;8.27;59.79;101895.50;4991303;28;20122;-81
2021/04/23 07:26:19;;;;;;;15.48;5.28;;;9.30;69.10;;;8.31;60.20;101894.22;4993751;28;20109;-81
2021/04/23 07:28:45;;;;;;;17.75;5.75;;;9.30;69.00;;;8.40;61.32;101896.13;4993716;28;20046;-81
2021/04/23 07:31:12;;;;;;;13.30;4.72;;;9.50;69.90;;;8.49;61.10;101895.34;4993260;28;20038;-81
2021/04/23 07:33:39;;;;;;;18.10;5.05;;;9.60;69.40;;;8.52;59.78;101895.03;4992509;28;20043;-81
2021/04/23 07:36:07;;;;;;;13.25;4.63;;;9.70;67.70;;;8.58;59.93;101889.06;4993562;28;20042;-81
2021/04/23 07:38:35;;;;;;;14.88;4.95;;;9.80;68.00;;;8.69;61.20;101898.09;4994380;28;20062;-81
2021/04/23 07:41:02;;;;;;;15.60;5.35;;;10.00;68.80;;;8.72;58.79;101903.25;4991726;28;20046;-81
2021/04/23 07:43:29;;;;;;;14.52;5.30;;;10.00;65.50;;;8.75;58.17;101894.84;4992021;28;20387;-81
2021/04/23 07:45:57;;;;;;;16.45;5.40;;;10.00;65.40;;;8.74;58.99;101891.28;4991171;28;20407;-81
2021/04/23 07:48:25;;;;;;;16.60;6.57;;;10.00;65.90;;;8.74;59.31;101898.56;4992804;28;20125;-81
2021/04/23 07:50:51;;;;;;;16.38;5.53;;;10.10;65.60;;;8.81;59.57;101894.28;4992715;28;20498;-81
2021/04/23 07:53:18;;;;;;;12.43;5.78;;;10.10;66.00;;;8.88;58.75;101894.59;4991948;28;20039;-81
2021/04/23 07:55:46;;;;;;;17.10;6.03;;;10.20;65.90;;;8.91;57.91;101892.47;4992161;28;20046;-81
2021/04/23 07:58:13;;;;;;;15.25;5.88;;;10.10;64.90;;;8.93;58.25;101895.88;4991621;28;20046;-81
2021/04/23 08:00:40;;;;;;;17.38;5.43;;;10.10;65.60;;;8.93;58.99;101890.47;4992796;28;20053;-81
2021/04/23 08:03:07;;;;;;;17.05;5.35;;;10.20;65.70;;;8.91;58.45;101889.75;4988781;28;20112;-81
2021/04/23 08:05:34;;;;;;;11.30;4.82;;;10.10;65.80;;;8.91;58.74;101894.28;4988864;28;20042;-81
2021/04/23 08:08:02;;;;;;;15.02;5.45;;;10.20;66.00;;;8.92;59.03;101887.88;5004287;28;20061;-81
2021/04/23 08:10:30;;;;;;;14.35;5.15;;;10.20;66.00;;;8.95;58.91;101895.75;5012215;28;20132;-81
2021/04/23 08:12:59;;;;;;;14.35;5.05;;;10.30;65.70;;;9.02;59.72;101901.47;5002374;28;20167;-81
2021/04/23 08:15:26;;;;;;;13.77;5.13;;;10.30;66.70;;;9.12;59.35;101907.75;5005674;28;20120;-81
2021/04/23 08:17:54;;;;;;;12.82;5.13;;;10.50;66.10;;;9.14;58.30;101911.22;4992775;28;20434;-81
2021/04/23 08:20:21;;;;;;;16.48;5.05;;;10.60;65.10;;;9.14;58.43;101900.34;4993364;28;20058;-81
2021/04/23 08:22:48;;;;;;;16.02;5.20;;;10.60;64.50;;;9.10;57.44;101897.06;4993503;28;20049;-81
2021/04/23 08:25:17;;;;;;;12.55;5.00;;;10.50;64.30;;;9.16;58.51;101899.22;4993072;28;20510;-81
2021/04/23 08:27:44;;;;;;;17.27;5.25;;;10.60;65.30;;;9.22;57.73;101900.50;4992724;28;20046;-81
2021/04/23 08:30:14;;;;;;;18.98;5.53;;;10.70;63.90;;;9.24;57.01;101900.38;4992708;28;20042;-81
2021/04/23 08:32:42;;;;;;;10.38;4.95;;;10.70;63.00;;;9.27;56.46;101900.94;5005724;28;20125;-81
2021/04/23 08:35:11;;;;;;;17.27;4.88;;;10.70;62.00;;;9.30;57.21;101892.50;4995048;28;20050;-81
2021/04/23 08:37:39;;;;;;;18.92;5.15;;;10.70;62.80;;;9.34;57.52;101895.78;4995216;28;20052;-80
2021/04/23 08:40:09;;;;;;;12.13;5.20;;;10.70;63.60;;;9.35;56.86;101898.38;5012742;28;20049;-81
2021/04/23 08:42:36;;;;;;;20.60;5.55;;;10.80;63.10;;;9.43;56.70;101896.78;5011900;28;20050;-81
2021/04/23 08:45:07;;;;;;;13.55;5.13;;;10.80;62.40;;;9.50;56.64;101896.09;5010119;28;20502;-81
2021/04/23 08:47:36;;;;;;;21.42;5.28;;;10.90;62.90;;;9.54;56.27;101896.66;4999107;28;20046;-81
2021/04/23 08:50:09;;;;;;;14.57;5.57;;;10.90;62.10;;;9.58;55.93;101898.94;4992452;28;20478;-80
2021/04/23 08:52:37;;;;;;;19.90;6.07;;;10.90;61.70;;;9.61;58.30;101892.34;5004224;28;20053;-81
2021/04/23 08:55:05;;;;;;;15.15;5.15;;;10.90;63.40;;;9.67;58.36;101894.50;4997965;28;20100;-81
2021/04/23 08:57:32;;;;;;;11.70;5.43;;;11.00;63.70;;;9.66;56.75;101881.91;4992935;28;20046;-81
2021/04/23 08:59:59;;;;;;;14.63;5.32;;;10.90;62.80;;;9.71;57.24;101881.44;5004578;28;20446;-80
2021/04/23 09:02:26;;;;;;;20.00;5.10;;;11.00;63.30;;;9.69;54.92;101875.28;5001901;28;20050;-81
2021/04/23 09:04:54;;;;;;;12.43;4.72;;;11.00;61.30;;;9.68;56.63;101870.88;4991016;28;20050;-81
2021/04/23 09:07:20;;;;;;;12.20;4.75;;;10.90;62.00;;;9.74;55.97;101870.28;5002693;28;20056;-81
2021/04/23 09:09:48;;;;;;;15.00;5.20;;;11.00;62.40;;;9.76;55.61;101871.84;5011923;28;20559;-81
2021/04/23 09:12:21;;;;;;;10.13;4.50;;;11.00;61.50;;;9.76;54.70;101863.69;5001245;28;20046;-81
2021/04/23 09:14:49;;;;;;;12.30;4.82;;;10.90;61.20;;;9.73;53.40;101858.56;4991119;28;20058;-81
2021/04/23 09:17:21;;;;;;;11.60;5.03;;;10.90;59.90;;;9.65;54.14;101872.00;5002596;28;20493;-81
2021/04/23 09:19:48;;;;;;;;;;;10.80;60.50;;;9.71;53.99;101876.00;5012100;28;20557;-80
2021/04/23 09:22:27;;;;;;;14.90;5.30;;;10.80;60.50;;;9.72;53.75;101867.72;5008112;28;19932;-81
2021/04/23 09:25:01;;;;;;;16.35;4.95;;;10.80;59.60;;;9.71;51.92;101865.13;5010834;28;20054;-81
2021/04/23 09:27:31;;;;;;;10.95;5.05;;;10.80;57.70;;;9.69;53.03;101867.16;5009272;28;20050;-80
2021/04/23 09:30:01;;;;;;;15.98;4.97;;;10.80;59.40;;;9.70;52.91;101864.28;5002031;28;20100;-81
2021/04/23 09:32:30;;;;;;;13.20;5.47;;;10.70;60.30;;;9.69;53.65;101862.59;5008496;28;20049;-81
2021/04/23 09:34:59;;;;;;;10.88;5.47;;;10.70;60.80;;;9.71;54.35;101870.56;5009936;28;20135;-81
2021/04/23 09:37:30;;;;;;;14.80;6.25;;;10.80;61.00;;;9.77;54.15;101875.44;5026997;28;20049;-81
2021/04/23 09:40:10;;;;;;;;;;;10.80;61.10;;;9.79;54.28;101870.72;5019619;28;20044;-80
2021/04/23 09:42:56;;;;;;;17.90;5.00;;;10.80;59.60;;;9.89;54.69;101867.97;5001700;28;19953;-80
2021/04/23 09:45:25;;;;;;;15.85;5.05;;;10.90;61.60;;;9.89;52.86;101871.53;4990708;28;20096;-81
2021/04/23 09:47:53;;;;;;;16.67;6.00;;;11.00;58.80;;;9.90;53.26;101875.13;5003649;28;20046;-80
2021/04/23 09:50:21;;;;;;;12.88;5.15;;;11.00;59.40;;;9.89;52.42;101867.97;4990348;28;20138;-81
2021/04/23 09:52:52;;;;;;;11.38;5.63;;;11.00;58.70;;;9.92;54.42;101864.97;5004845;28;20045;-80
2021/04/23 09:55:21;;;;;;;15.48;6.07;;;11.00;60.00;;;9.97;53.45;101865.38;4993441;28;20061;-81
2021/04/23 09:57:51;;;;;;;16.25;6.03;;;11.10;59.30;;;10.04;54.24;101871.94;4988957;28;20072;-81
2021/04/23 10:00:24;;;;;;;15.82;5.65;;;11.10;60.30;;;10.04;54.45;101861.06;4990626;28;20053;-80
2021/04/23 10:02:54;;;;;;;14.27;6.45;;;11.10;60.50;;;10.03;53.51;101864.78;4999083;28;20061;-81
2021/04/23 10:05:33;;;;;;;12.70;5.50;;;11.20;59.80;;;10.02;52.55;101862.22;5010220;28;20050;-80
2021/04/23 10:08:02;;;;;;;15.63;5.55;;;11.20;58.10;;;10.08;52.87;101862.47;4992710;28;20066;-81
2021/04/23 10:10:29;;;;;;;10.80;5.22;;;11.20;58.10;;;10.12;52.60;101865.75;4990198;28;20141;-81
2021/04/23 10:12:59;;;;;;;12.88;5.70;;;11.20;58.00;;;10.17;52.63;101861.59;5004557;28;20514;-81
2021/04/23 10:15:29;;;;;;;11.88;6.10;;;11.20;58.50;;;10.19;51.24;101853.28;5009751;28;20042;-81
2021/04/23 10:17:59;;;;;;;11.70;5.18;;;11.30;56.70;;;10.20;51.83;101857.72;4993852;28;20046;-81
2021/04/23 10:20:29;;;;;;;18.25;6.53;;;11.30;57.60;;;10.25;52.60;101854.56;4990285;28;20053;-81
2021/04/23 10:22:58;;;;;;;12.13;6.28;;;11.40;58.30;;;10.23;51.86;101853.84;5006668;28;20046;-81